Terminal Aerodrome Forecast
Issued by NWS Denver/Boulder, CO

Home | Current Version | Previous Version | Text Only | Print | Product List | Glossary On
Versions: 1 2 3 4 5 6 7 8 9 10 11 12 13 14 15 16 17 18 19 20 21 22 23 24 25 26 27 28 29 30 31 32 33 34 35 36 37 38 39 40 41 42 43 44 45 46 47 48
000
FTUS45 KBOU 080021 AAA
TAFDEN
TAF AMD
KDEN 080021Z 0800/0906 02007KT P6SM SCT020 BKN060
     FM080300 VRB05KT P6SM SCT025 SCT060
     FM080900 19006KT P6SM FEW020 SCT040
     FM081600 08007KT P6SM FEW050 SCT200
     FM082300 14007KT P6SM SCT080 BKN140
     FM090300 21009KT P6SM SCT120 BKN200=

USA.gov is the U.S. government's official web portal to all federal, state and local government web resources and services.